createdAt,value
2022-10-06T00:01:42.826Z,7.50
2022-10-06T00:05:10.570Z,7.50
2022-10-06T00:08:40.698Z,7.70
2022-10-06T00:12:09.227Z,7.60
2022-10-06T00:15:38.619Z,7.50
2022-10-06T00:19:06.225Z,7.90
2022-10-06T00:22:48.227Z,8.10
2022-10-06T00:26:18.056Z,7.50
2022-10-06T00:29:45.277Z,7.90
2022-10-06T00:33:16.390Z,8.10
2022-10-06T00:36:44.234Z,8.10
2022-10-06T00:40:14.126Z,8.20
2022-10-06T00:43:46.549Z,7.50
2022-10-06T00:47:13.591Z,7.30
2022-10-06T00:50:42.076Z,7.30
2022-10-06T00:54:12.185Z,7.40
2022-10-06T00:57:42.342Z,7.40
2022-10-06T01:01:10.704Z,7.50
2022-10-06T01:04:42.701Z,7.70
2022-10-06T01:08:10.319Z,7.20
2022-10-06T01:11:38.104Z,7.20
2022-10-06T01:15:05.361Z,7.50
2022-10-06T01:18:34.001Z,8.10
2022-10-06T01:22:19.453Z,7.40
2022-10-06T01:26:02.242Z,8.20
2022-10-06T01:29:29.316Z,8.10
2022-10-06T01:32:56.207Z,6.90
2022-10-06T01:36:23.826Z,6.90
2022-10-06T01:39:51.885Z,7.00
2022-10-06T01:43:18.496Z,7.40
2022-10-06T01:46:45.812Z,7.70
2022-10-06T01:50:13.080Z,7.40
2022-10-06T01:53:39.798Z,7.40
2022-10-06T01:57:09.107Z,7.90
2022-10-06T02:00:35.915Z,7.90
2022-10-06T02:04:03.843Z,8.40
2022-10-06T02:07:30.704Z,7.40
2022-10-06T02:10:57.346Z,7.20
2022-10-06T02:14:26.328Z,7.10
2022-10-06T02:17:54.412Z,7.90
2022-10-06T02:21:26.945Z,7.30
2022-10-06T02:24:54.622Z,7.70
2022-10-06T02:28:22.037Z,6.70
2022-10-06T02:31:49.748Z,7.30
2022-10-06T02:35:17.784Z,6.80
2022-10-06T02:38:45.693Z,6.70
2022-10-06T02:42:13.179Z,6.70
2022-10-06T02:45:40.121Z,7.10
2022-10-06T02:49:07.410Z,6.00
2022-10-06T02:52:43.046Z,6.30
2022-10-06T02:56:13.190Z,7.60
2022-10-06T02:59:39.906Z,7.00
2022-10-06T03:03:06.907Z,6.60
2022-10-06T03:06:34.533Z,6.70
2022-10-06T03:10:21.885Z,6.80
2022-10-06T03:13:50.145Z,6.40
2022-10-06T03:17:17.612Z,6.10
2022-10-06T03:20:49.019Z,6.20
2022-10-06T03:24:16.214Z,6.20
2022-10-06T03:27:45.557Z,6.50
2022-10-06T03:31:13.902Z,6.40
2022-10-06T03:34:40.636Z,8.40
2022-10-06T03:38:11.160Z,6.70
2022-10-06T03:41:40.553Z,5.70
2022-10-06T03:45:11.098Z,6.90
2022-10-06T03:48:38.627Z,6.60
2022-10-06T03:52:09.273Z,6.30
2022-10-06T03:55:38.525Z,6.60
2022-10-06T03:59:08.627Z,6.70
2022-10-06T04:02:36.008Z,7.10
2022-10-06T04:06:04.599Z,7.30
2022-10-06T04:09:37.405Z,7.60
2022-10-06T04:13:05.304Z,7.30
2022-10-06T04:16:36.385Z,6.40
2022-10-06T04:20:06.713Z,6.90
2022-10-06T04:23:34.205Z,7.60
2022-10-06T04:27:15.843Z,7.40
2022-10-06T04:30:44.607Z,6.40
2022-10-06T04:34:15.005Z,6.40
2022-10-06T04:37:43.980Z,7.20
2022-10-06T04:41:12.913Z,6.60
2022-10-06T04:44:39.582Z,6.40
2022-10-06T04:48:10.160Z,6.50
2022-10-06T04:51:37.864Z,6.50
2022-10-06T04:55:06.948Z,6.20
2022-10-06T04:58:40.344Z,6.60
2022-10-06T05:02:13.904Z,6.60
2022-10-06T05:05:42.114Z,6.90
2022-10-06T05:09:11.944Z,7.10
2022-10-06T05:12:44.355Z,6.70
2022-10-06T05:16:14.793Z,6.70
2022-10-06T05:19:43.961Z,7.10
2022-10-06T05:23:11.856Z,7.00
2022-10-06T05:26:40.651Z,7.10
2022-10-06T05:30:13.267Z,7.00
2022-10-06T05:33:40.990Z,7.20
2022-10-06T05:37:08.851Z,6.50
2022-10-06T05:40:35.976Z,6.40
2022-10-06T05:44:03.502Z,7.00
2022-10-06T05:47:31.639Z,7.20
2022-10-06T05:51:06.641Z,6.90
2022-10-06T05:54:35.269Z,6.70
2022-10-06T05:58:03.011Z,6.90
2022-10-06T06:01:32.740Z,6.60
2022-10-06T06:05:01.357Z,7.40
2022-10-06T06:08:28.554Z,6.40
2022-10-06T06:11:55.807Z,7.40
2022-10-06T06:15:59.139Z,6.90
2022-10-06T06:19:29.215Z,6.80
2022-10-06T06:22:57.102Z,7.30
2022-10-06T06:26:28.560Z,6.70
2022-10-06T06:29:57.623Z,7.00
2022-10-06T06:33:25.146Z,6.70
2022-10-06T06:36:56.049Z,7.00
2022-10-06T06:40:23.130Z,6.40
2022-10-06T06:43:53.063Z,6.30
2022-10-06T06:47:36.157Z,6.30
2022-10-06T06:51:05.043Z,6.10
2022-10-06T06:54:32.281Z,5.60
2022-10-06T06:58:07.577Z,5.60
2022-10-06T07:01:34.830Z,5.10
2022-10-06T07:05:01.817Z,4.90
2022-10-06T07:08:33.523Z,4.80
2022-10-06T07:12:00.490Z,4.80
2022-10-06T07:15:44.600Z,4.80
2022-10-06T07:19:31.826Z,5.00
2022-10-06T07:23:15.803Z,4.50
2022-10-06T07:26:43.580Z,4.40
2022-10-06T07:30:13.061Z,3.40
2022-10-06T07:33:41.479Z,3.70
2022-10-06T07:37:09.868Z,3.40
2022-10-06T07:40:40.225Z,2.80
2022-10-06T07:44:19.309Z,2.90
2022-10-06T07:47:49.341Z,2.70
2022-10-06T07:51:19.668Z,3.60
2022-10-06T07:54:50.875Z,2.90
2022-10-06T07:58:41.017Z,2.80
2022-10-06T08:02:10.667Z,3.10
2022-10-06T08:05:49.909Z,3.10
2022-10-06T08:09:18.720Z,3.20
2022-10-06T08:12:48.578Z,3.70
2022-10-06T08:16:18.783Z,3.90
2022-10-06T08:19:48.520Z,3.00
2022-10-06T08:23:17.101Z,2.70
2022-10-06T08:26:47.515Z,2.60
2022-10-06T08:30:17.330Z,2.60
2022-10-06T08:33:45.036Z,2.20
2022-10-06T08:37:20.482Z,2.40
2022-10-06T08:40:48.879Z,2.20
2022-10-06T08:44:31.570Z,2.40
2022-10-06T08:48:06.092Z,2.30
2022-10-06T08:51:51.408Z,2.40
2022-10-06T08:55:39.188Z,1.90
2022-10-06T08:59:10.380Z,1.90
2022-10-06T09:02:42.449Z,2.20
2022-10-06T09:06:18.348Z,1.90
2022-10-06T09:09:58.739Z,2.00
2022-10-06T09:13:31.006Z,3.00
2022-10-06T09:17:04.045Z,1.60
2022-10-06T09:24:06.237Z,1.40
2022-10-06T09:27:39.543Z,2.00
2022-10-06T09:31:18.559Z,1.70
2022-10-06T09:34:50.176Z,1.50
2022-10-06T09:38:17.030Z,1.30
2022-10-06T09:41:47.289Z,1.80
2022-10-06T09:45:29.655Z,1.30
2022-10-06T09:49:24.265Z,1.30
2022-10-06T09:53:17.666Z,1.20
2022-10-06T09:56:48.423Z,1.10
2022-10-06T10:07:41.991Z,0.90
2022-10-06T10:11:40.204Z,0.60
2022-10-06T10:15:26.173Z,1.20
2022-10-06T10:18:53.974Z,1.10
2022-10-06T10:22:25.918Z,1.00
2022-10-06T10:26:05.703Z,0.80
2022-10-06T10:30:08.362Z,1.00
2022-10-06T10:33:49.669Z,1.30
2022-10-06T10:37:32.376Z,1.40
2022-10-06T10:41:10.178Z,0.80
2022-10-06T10:44:44.756Z,0.70
2022-10-06T10:48:19.238Z,0.70
2022-10-06T10:51:51.242Z,1.00
2022-10-06T10:55:29.982Z,0.80
2022-10-06T10:59:04.421Z,0.70
2022-10-06T11:02:31.721Z,1.00
2022-10-06T11:06:34.546Z,0.70
2022-10-06T11:13:40.180Z,0.70
2022-10-06T11:17:15.792Z,0.80
2022-10-06T11:20:49.973Z,0.60
2022-10-06T11:24:21.182Z,0.70
2022-10-06T11:27:56.762Z,1.50
2022-10-06T11:31:34.503Z,0.80
2022-10-06T11:35:02.331Z,1.20
2022-10-06T11:38:40.589Z,0.80
2022-10-06T11:42:17.441Z,1.00
2022-10-06T11:45:52.754Z,0.60
2022-10-06T11:49:52.292Z,1.00
2022-10-06T11:53:38.340Z,0.50
2022-10-06T11:57:05.346Z,1.30
2022-10-06T12:00:49.985Z,1.40
2022-10-06T12:04:23.536Z,1.10
2022-10-06T12:08:16.987Z,0.90
2022-10-06T12:11:45.618Z,1.20
2022-10-06T12:19:23.560Z,0.80
2022-10-06T12:22:56.695Z,0.90
2022-10-06T12:26:36.326Z,1.20
2022-10-06T12:30:16.360Z,0.90
2022-10-06T12:33:44.766Z,0.80
2022-10-06T12:37:44.308Z,1.00
2022-10-06T12:41:15.279Z,1.60
2022-10-06T12:44:49.246Z,1.00
2022-10-06T12:48:24.635Z,1.10
2022-10-06T12:51:57.700Z,1.00
2022-10-06T12:55:49.528Z,1.00
2022-10-06T12:59:26.370Z,0.80
2022-10-06T13:02:56.235Z,0.90
2022-10-06T13:06:25.943Z,1.10
2022-10-06T13:09:54.796Z,0.80
2022-10-06T13:13:26.701Z,1.70
2022-10-06T13:16:53.809Z,1.00
2022-10-06T13:20:37.575Z,1.40
2022-10-06T13:24:05.919Z,0.80
2022-10-06T13:27:33.159Z,1.20
2022-10-06T13:31:04.907Z,1.10
2022-10-06T13:34:42.318Z,1.10
2022-10-06T13:38:13.927Z,1.10
2022-10-06T13:41:47.434Z,1.10
2022-10-06T13:45:17.967Z,0.90
2022-10-06T13:48:51.153Z,1.60
2022-10-06T13:55:52.336Z,0.80
2022-10-06T13:59:37.475Z,0.90
2022-10-06T14:03:22.156Z,1.00
2022-10-06T14:06:55.618Z,1.10
2022-10-06T14:13:56.102Z,0.90
2022-10-06T14:20:53.536Z,1.10
2022-10-06T14:24:28.697Z,1.10
2022-10-06T14:27:55.956Z,1.00
2022-10-06T14:31:24.036Z,1.30
2022-10-06T14:34:50.955Z,1.10
2022-10-06T14:38:19.198Z,1.00
2022-10-06T14:41:47.346Z,1.00
2022-10-06T14:45:19.770Z,0.80
2022-10-06T14:48:47.489Z,0.90
2022-10-06T14:52:14.774Z,1.10
2022-10-06T14:55:41.773Z,1.20
2022-10-06T14:59:10.466Z,1.40
2022-10-06T15:02:38.607Z,1.30
2022-10-06T15:06:26.003Z,1.30
2022-10-06T15:09:53.281Z,1.70
2022-10-06T15:13:22.221Z,1.70
2022-10-06T15:16:50.976Z,1.50
2022-10-06T15:20:18.691Z,1.10
2022-10-06T15:23:46.566Z,1.20
2022-10-06T15:27:33.440Z,1.50
2022-10-06T15:31:01.216Z,1.30
2022-10-06T15:34:33.791Z,1.40
2022-10-06T15:38:01.000Z,1.30
2022-10-06T15:41:29.111Z,1.40
2022-10-06T15:44:56.485Z,1.10
2022-10-06T15:48:25.337Z,1.30
2022-10-06T15:51:57.549Z,1.80
2022-10-06T15:55:24.685Z,1.80
2022-10-06T15:58:52.269Z,1.60
2022-10-06T16:02:21.208Z,1.60
2022-10-06T16:05:52.206Z,1.30
2022-10-06T16:09:20.489Z,2.00
2022-10-06T16:12:47.789Z,1.70
2022-10-06T16:16:20.235Z,1.20
2022-10-06T16:19:47.695Z,1.50
2022-10-06T16:23:25.450Z,1.90
2022-10-06T16:26:56.526Z,2.00
2022-10-06T16:30:23.534Z,1.90
2022-10-06T16:33:51.925Z,2.10
2022-10-06T16:37:18.654Z,2.20
2022-10-06T16:40:46.270Z,2.20
2022-10-06T16:44:12.989Z,2.00
2022-10-06T16:47:40.867Z,2.60
2022-10-06T16:51:10.885Z,3.40
2022-10-06T16:54:37.569Z,4.60
2022-10-06T16:58:04.411Z,5.00
2022-10-06T17:01:32.847Z,7.00
2022-10-06T17:05:00.275Z,6.30
2022-10-06T17:08:26.906Z,5.90
2022-10-06T17:11:56.050Z,6.60
2022-10-06T17:15:24.065Z,6.20
2022-10-06T17:18:52.804Z,7.20
2022-10-06T17:22:19.617Z,8.70
2022-10-06T17:25:47.542Z,7.20
2022-10-06T17:29:19.090Z,8.10
2022-10-06T17:32:47.346Z,7.10
2022-10-06T17:36:16.896Z,7.00
2022-10-06T17:39:47.141Z,7.10
2022-10-06T17:43:14.183Z,6.00
2022-10-06T17:46:48.066Z,5.70
2022-10-06T17:50:17.353Z,6.40
2022-10-06T17:53:46.713Z,6.00
2022-10-06T17:57:14.396Z,6.60
2022-10-06T18:00:42.805Z,6.20
2022-10-06T18:04:14.678Z,7.10
2022-10-06T18:07:43.716Z,6.70
2022-10-06T18:11:41.883Z,7.90
2022-10-06T18:15:12.612Z,8.00
2022-10-06T18:18:44.052Z,7.60
2022-10-06T18:22:13.935Z,12.90
2022-10-06T18:25:40.994Z,17.00
2022-10-06T18:29:08.081Z,13.00
2022-10-06T18:34:36.666Z,11.90
2022-10-06T18:36:24.155Z,10.90
2022-10-06T18:39:51.075Z,12.20
2022-10-06T18:43:18.324Z,10.90
2022-10-06T18:47:14.414Z,10.40
2022-10-06T18:50:42.120Z,9.20
2022-10-06T18:54:11.762Z,8.60
2022-10-06T18:57:41.402Z,8.60
2022-10-06T19:01:09.454Z,8.70
2022-10-06T19:04:38.026Z,9.30
2022-10-06T19:08:08.324Z,10.10
2022-10-06T19:11:46.319Z,9.70
2022-10-06T19:15:20.326Z,10.50
2022-10-06T19:18:48.533Z,11.00
2022-10-06T19:22:24.871Z,13.10
2022-10-06T19:25:59.950Z,11.40
2022-10-06T19:29:28.264Z,10.90
2022-10-06T19:32:55.304Z,11.90
2022-10-06T19:36:22.179Z,10.20
2022-10-06T19:39:50.486Z,10.70
2022-10-06T19:43:19.570Z,10.90
2022-10-06T19:46:46.980Z,10.40
2022-10-06T19:50:13.918Z,10.40
2022-10-06T19:53:41.727Z,9.80
2022-10-06T19:57:12.467Z,11.00
2022-10-06T20:00:46.201Z,11.00
2022-10-06T20:04:25.256Z,12.80
2022-10-06T20:07:53.796Z,12.00
2022-10-06T20:11:25.707Z,13.10
2022-10-06T20:14:56.814Z,17.50
2022-10-06T20:18:26.494Z,20.10
2022-10-06T20:22:09.620Z,23.60
2022-10-06T20:25:41.287Z,18.00
2022-10-06T20:29:13.603Z,18.40
2022-10-06T20:32:40.685Z,18.60
2022-10-06T20:36:10.494Z,20.70
2022-10-06T20:39:58.150Z,23.40
2022-10-06T20:43:25.788Z,27.60
2022-10-06T20:46:55.799Z,29.60
2022-10-06T20:50:22.731Z,28.00
2022-10-06T20:53:50.135Z,22.30
2022-10-06T20:57:17.129Z,22.00
2022-10-06T21:00:43.849Z,26.10
2022-10-06T21:04:12.012Z,30.50
2022-10-06T21:07:39.971Z,28.10
2022-10-06T21:11:08.112Z,24.60
2022-10-06T21:14:42.607Z,30.20
2022-10-06T21:18:11.305Z,31.60
2022-10-06T21:21:38.647Z,30.40
2022-10-06T21:25:06.321Z,27.00
2022-10-06T21:28:34.643Z,25.80
2022-10-06T21:32:02.299Z,25.30
2022-10-06T21:35:29.577Z,22.50
2022-10-06T21:39:00.903Z,22.40
2022-10-06T21:42:27.636Z,20.70
2022-10-06T21:46:23.973Z,21.00
2022-10-06T21:49:44.894Z,20.10
2022-10-06T21:53:12.062Z,20.30
2022-10-06T21:56:40.448Z,20.50
2022-10-06T22:00:11.413Z,19.40
2022-10-06T22:03:41.229Z,21.20
2022-10-06T22:07:08.468Z,22.50
2022-10-06T22:10:35.847Z,22.90
2022-10-06T22:14:07.073Z,25.80
2022-10-06T22:17:34.956Z,36.50
2022-10-06T22:21:02.633Z,37.60
2022-10-06T22:24:29.678Z,38.50
2022-10-06T22:27:57.337Z,33.90
2022-10-06T22:31:30.303Z,31.60
2022-10-06T22:34:58.508Z,29.80
2022-10-06T22:38:28.024Z,29.30
2022-10-06T22:41:55.512Z,23.80
2022-10-06T22:45:22.241Z,20.20
2022-10-06T22:48:49.484Z,18.00
2022-10-06T22:52:16.152Z,17.50
2022-10-06T22:55:43.186Z,15.80
2022-10-06T22:59:10.194Z,16.10
2022-10-06T23:02:36.773Z,17.00
2022-10-06T23:06:04.252Z,15.80
2022-10-06T23:09:31.197Z,15.90
2022-10-06T23:13:02.165Z,16.20
2022-10-06T23:16:28.878Z,15.60
2022-10-06T23:19:57.320Z,15.30
2022-10-06T23:23:24.481Z,16.10
2022-10-06T23:26:52.627Z,16.10
2022-10-06T23:30:19.890Z,13.20
2022-10-06T23:33:46.956Z,13.70
2022-10-06T23:37:14.102Z,13.50
2022-10-06T23:40:41.050Z,12.30
2022-10-06T23:44:07.686Z,12.60
2022-10-06T23:47:34.503Z,11.70
2022-10-06T23:51:03.776Z,13.00
2022-10-06T23:54:32.029Z,12.20
2022-10-06T23:57:58.732Z,13.00
